createdAt,value
2018-04-28T00:00:19.859Z,21.73
2018-04-28T00:00:51.473Z,21.74
2018-04-28T00:01:23.062Z,21.74
2018-04-28T00:01:54.641Z,21.74
2018-04-28T00:02:26.208Z,21.74
2018-04-28T00:02:57.800Z,21.75
2018-04-28T00:03:29.414Z,21.73
2018-04-28T00:04:01.021Z,21.71
2018-04-28T00:04:32.623Z,21.71
2018-04-28T00:05:04.216Z,21.71
2018-04-28T00:05:35.836Z,21.72
2018-04-28T00:06:07.408Z,21.72
2018-04-28T00:06:39.000Z,21.72
2018-04-28T00:07:10.581Z,21.73
2018-04-28T00:07:42.186Z,21.72
2018-04-28T00:08:13.780Z,21.75
2018-04-28T00:08:45.390Z,21.80
2018-04-28T00:09:17.007Z,21.82
2018-04-28T00:09:48.599Z,21.82
2018-04-28T00:10:20.188Z,21.83
2018-04-28T00:10:51.838Z,21.83
2018-04-28T00:11:23.421Z,21.84
2018-04-28T00:11:55.023Z,21.83
2018-04-28T00:12:26.621Z,21.83
2018-04-28T00:12:58.214Z,21.86
2018-04-28T00:13:29.794Z,21.82
2018-04-28T00:14:01.388Z,21.85
2018-04-28T00:14:32.994Z,21.86
2018-04-28T00:15:04.603Z,21.85
2018-04-28T00:15:36.200Z,21.86
2018-04-28T00:16:07.826Z,21.85
2018-04-28T00:16:39.435Z,21.84
2018-04-28T00:17:11.052Z,21.84
2018-04-28T00:17:42.642Z,21.84
2018-04-28T00:18:14.250Z,21.85
2018-04-28T00:18:45.830Z,21.84
2018-04-28T00:19:17.438Z,21.81
2018-04-28T00:19:49.022Z,21.83
2018-04-28T00:20:20.642Z,21.84
2018-04-28T00:20:52.245Z,21.83
2018-04-28T00:21:23.828Z,21.79
2018-04-28T00:21:55.472Z,21.80
2018-04-28T00:22:27.077Z,21.82
2018-04-28T00:22:58.681Z,21.83
2018-04-28T00:23:30.306Z,21.84
2018-04-28T00:24:01.882Z,21.78
2018-04-28T00:24:33.526Z,21.84
2018-04-28T00:25:05.100Z,21.82
2018-04-28T00:25:36.693Z,21.84
2018-04-28T00:26:08.315Z,21.84
2018-04-28T00:26:39.907Z,21.81
2018-04-28T00:27:11.494Z,21.83
2018-04-28T00:27:43.110Z,21.82
2018-04-28T00:28:14.742Z,21.82
2018-04-28T00:28:46.318Z,21.81
2018-04-28T00:29:17.937Z,21.82
2018-04-28T00:29:49.541Z,21.83
2018-04-28T00:30:21.122Z,21.84
2018-04-28T00:30:52.726Z,21.84
2018-04-28T00:31:24.311Z,21.83
2018-04-28T00:31:55.895Z,21.83
2018-04-28T00:32:27.478Z,21.82
2018-04-28T00:32:59.072Z,21.80
2018-04-28T00:33:30.729Z,21.79
2018-04-28T00:34:02.341Z,21.78
2018-04-28T00:34:33.950Z,21.78
2018-04-28T00:35:05.533Z,21.80
2018-04-28T00:35:37.106Z,21.79
2018-04-28T00:36:08.686Z,21.81
2018-04-28T00:36:40.259Z,21.76
2018-04-28T00:37:11.848Z,21.78
2018-04-28T00:37:43.429Z,21.79
2018-04-28T00:38:15.031Z,21.79
2018-04-28T00:38:46.668Z,21.77
2018-04-28T00:39:18.278Z,21.79
2018-04-28T00:39:49.862Z,21.80
2018-04-28T00:40:21.452Z,21.80
2018-04-28T00:40:53.057Z,21.79
2018-04-28T00:41:24.628Z,21.78
2018-04-28T00:41:56.214Z,21.79
2018-04-28T00:42:27.788Z,21.78
2018-04-28T00:42:59.357Z,21.80
2018-04-28T00:43:30.948Z,21.80
2018-04-28T00:44:02.609Z,21.80
2018-04-28T00:44:34.190Z,21.80
2018-04-28T00:45:05.765Z,21.81
2018-04-28T00:45:37.342Z,21.82
2018-04-28T00:46:08.922Z,21.82
2018-04-28T00:46:40.521Z,21.82
2018-04-28T00:47:12.092Z,21.81
2018-04-28T00:47:43.702Z,21.83
2018-04-28T00:48:15.306Z,21.79
2018-04-28T00:48:46.894Z,21.79
2018-04-28T00:49:18.482Z,21.79
2018-04-28T00:49:50.067Z,21.82
2018-04-28T00:50:21.666Z,21.79
2018-04-28T00:50:53.280Z,21.77
2018-04-28T00:51:24.920Z,21.77
2018-04-28T00:51:56.497Z,21.77
2018-04-28T00:52:28.098Z,21.76
2018-04-28T00:52:59.696Z,21.77
2018-04-28T00:53:31.301Z,21.77
2018-04-28T00:54:02.887Z,21.78
2018-04-28T00:54:34.468Z,21.74
2018-04-28T00:55:06.061Z,21.73
2018-04-28T00:55:37.638Z,21.72
2018-04-28T00:56:09.205Z,21.72
2018-04-28T00:56:40.854Z,21.72
2018-04-28T00:57:12.452Z,21.71
2018-04-28T00:57:44.034Z,21.71
2018-04-28T00:58:15.628Z,21.70
2018-04-28T00:58:47.214Z,21.68
2018-04-28T00:59:18.780Z,21.68
2018-04-28T00:59:50.422Z,21.68
2018-04-28T01:00:21.992Z,21.68
2018-04-28T01:00:53.574Z,21.69
2018-04-28T01:01:25.141Z,21.69
2018-04-28T01:01:56.709Z,21.69
2018-04-28T01:02:28.309Z,21.70
2018-04-28T01:02:59.894Z,21.70
2018-04-28T01:03:31.469Z,21.69
2018-04-28T01:04:03.074Z,21.68
2018-04-28T01:04:34.657Z,21.68
2018-04-28T01:05:06.255Z,21.66
2018-04-28T01:05:37.862Z,21.67
2018-04-28T01:06:09.510Z,21.66
2018-04-28T01:06:41.080Z,21.65
2018-04-28T01:07:12.662Z,21.65
2018-04-28T01:07:44.265Z,21.66
2018-04-28T01:08:15.871Z,21.65
2018-04-28T01:08:47.458Z,21.64
2018-04-28T01:09:19.058Z,21.65
2018-04-28T01:09:50.642Z,21.67
2018-04-28T01:10:22.298Z,21.66
2018-04-28T01:10:53.892Z,21.65
2018-04-28T01:11:25.482Z,21.63
2018-04-28T01:11:57.062Z,21.64
2018-04-28T01:12:28.652Z,21.65
2018-04-28T01:13:00.238Z,21.65
2018-04-28T01:13:31.809Z,21.64
2018-04-28T01:14:03.376Z,21.63
2018-04-28T01:14:34.958Z,21.62
2018-04-28T01:15:06.559Z,21.61
2018-04-28T01:15:38.212Z,21.62
2018-04-28T01:16:09.821Z,21.60
2018-04-28T01:16:41.407Z,21.60
2018-04-28T01:17:13.009Z,21.61
2018-04-28T01:17:44.580Z,21.60
2018-04-28T01:18:16.160Z,21.61
2018-04-28T01:18:47.751Z,21.59
2018-04-28T01:19:19.338Z,21.62
2018-04-28T01:19:50.952Z,21.62
2018-04-28T01:20:22.544Z,21.63
2018-04-28T01:20:54.130Z,21.64
2018-04-28T01:21:25.711Z,21.64
2018-04-28T01:21:57.294Z,21.63
2018-04-28T01:22:28.878Z,21.63
2018-04-28T01:23:00.458Z,21.65
2018-04-28T01:23:32.062Z,21.65
2018-04-28T01:24:03.650Z,21.64
2018-04-28T01:24:35.258Z,21.64
2018-04-28T01:25:06.906Z,21.62
2018-04-28T01:25:38.501Z,21.64
2018-04-28T01:26:10.089Z,21.62
2018-04-28T01:26:41.689Z,21.65
2018-04-28T01:27:13.294Z,21.66
2018-04-28T01:27:44.909Z,21.67
2018-04-28T01:28:16.514Z,21.66
2018-04-28T01:28:48.102Z,21.68
2018-04-28T01:29:19.709Z,21.69
2018-04-28T01:29:51.391Z,21.68
2018-04-28T01:30:22.969Z,21.69
2018-04-28T01:30:54.541Z,21.70
2018-04-28T01:31:26.121Z,21.66
2018-04-28T01:31:57.722Z,21.67
2018-04-28T01:32:29.337Z,21.69
2018-04-28T01:33:00.935Z,21.68
2018-04-28T01:33:32.518Z,21.58
2018-04-28T01:34:04.112Z,21.67
2018-04-28T01:34:35.698Z,21.67
2018-04-28T01:35:07.318Z,21.67
2018-04-28T01:35:38.893Z,21.65
2018-04-28T01:36:10.482Z,21.65
2018-04-28T01:36:42.086Z,21.67
2018-04-28T01:37:13.663Z,21.64
2018-04-28T01:37:45.241Z,21.66
2018-04-28T01:38:16.845Z,21.65
2018-04-28T01:38:48.449Z,21.66
2018-04-28T01:39:20.046Z,21.65
2018-04-28T01:39:51.674Z,21.65
2018-04-28T01:40:23.264Z,21.65
2018-04-28T01:40:54.869Z,21.65
2018-04-28T01:41:26.474Z,21.64
2018-04-28T01:41:58.054Z,21.65
2018-04-28T01:42:29.637Z,21.64
2018-04-28T01:43:01.209Z,21.63
2018-04-28T01:43:32.839Z,21.65
2018-04-28T01:44:04.418Z,21.64
2018-04-28T01:44:36.018Z,21.67
2018-04-28T01:45:07.618Z,21.66
2018-04-28T01:45:39.205Z,21.66
2018-04-28T01:46:10.794Z,21.70
2018-04-28T01:46:42.374Z,21.75
2018-04-28T01:47:13.945Z,21.77
2018-04-28T01:47:45.549Z,21.74
2018-04-28T01:48:17.134Z,21.73
2018-04-28T01:48:48.754Z,21.70
2018-04-28T01:49:20.333Z,21.69
2018-04-28T01:49:51.942Z,21.71
2018-04-28T01:50:23.566Z,21.69
2018-04-28T01:50:55.160Z,21.70
2018-04-28T01:51:26.800Z,21.69
2018-04-28T01:51:58.382Z,21.68
2018-04-28T01:52:29.962Z,21.67
2018-04-28T01:53:01.542Z,21.67
2018-04-28T01:53:33.154Z,21.66
2018-04-28T01:54:04.724Z,21.66
2018-04-28T01:54:36.293Z,21.67
2018-04-28T01:55:07.893Z,21.66
2018-04-28T01:55:39.474Z,21.66
2018-04-28T01:56:11.073Z,21.66
2018-04-28T01:56:42.698Z,21.65
2018-04-28T01:57:14.307Z,21.64
2018-04-28T01:57:45.934Z,21.64
2018-04-28T01:58:17.528Z,21.64
2018-04-28T01:58:49.134Z,21.63
2018-04-28T01:59:20.705Z,21.63
2018-04-28T01:59:52.330Z,21.61
2018-04-28T02:00:23.940Z,21.62
2018-04-28T02:00:55.537Z,21.61
2018-04-28T02:01:27.126Z,21.60
2018-04-28T02:01:58.726Z,21.62
2018-04-28T02:02:30.332Z,21.65
2018-04-28T02:03:01.914Z,21.64
2018-04-28T02:03:33.494Z,21.65
2018-04-28T02:04:05.069Z,21.64
2018-04-28T02:04:36.650Z,21.64
2018-04-28T02:05:08.274Z,21.65
2018-04-28T02:05:39.844Z,21.66
2018-04-28T02:06:11.422Z,21.65
2018-04-28T02:06:43.029Z,21.68
2018-04-28T02:07:14.618Z,21.67
2018-04-28T02:07:46.207Z,21.69
2018-04-28T02:08:17.784Z,21.70
2018-04-28T02:08:49.348Z,21.72
2018-04-28T02:09:20.953Z,21.72
2018-04-28T02:09:52.553Z,21.71
2018-04-28T02:10:24.169Z,21.72
2018-04-28T02:10:55.769Z,21.71
2018-04-28T02:11:27.374Z,21.70
2018-04-28T02:11:58.961Z,21.70
2018-04-28T02:12:30.532Z,21.69
2018-04-28T02:13:02.127Z,21.70
2018-04-28T02:13:33.758Z,21.68
2018-04-28T02:14:05.377Z,21.68
2018-04-28T02:14:36.948Z,21.69
2018-04-28T02:15:08.621Z,21.68
2018-04-28T02:15:40.233Z,21.68
2018-04-28T02:16:11.834Z,21.67
2018-04-28T02:16:43.416Z,21.67
2018-04-28T02:17:15.013Z,21.67
2018-04-28T02:17:46.603Z,21.58
2018-04-28T02:18:18.172Z,21.65
2018-04-28T02:18:49.750Z,21.70
2018-04-28T02:19:21.316Z,21.52
2018-04-28T02:19:52.894Z,21.72
2018-04-28T02:20:24.518Z,21.75
2018-04-28T02:20:56.092Z,21.73
2018-04-28T02:21:27.694Z,21.74
2018-04-28T02:21:59.282Z,21.74
2018-04-28T02:22:30.881Z,21.74
2018-04-28T02:23:02.466Z,21.73
2018-04-28T02:23:34.050Z,21.73
2018-04-28T02:24:05.625Z,21.74
2018-04-28T02:24:37.196Z,21.73
2018-04-28T02:25:08.777Z,21.74
2018-04-28T02:25:40.423Z,21.73
2018-04-28T02:26:12.010Z,21.73
2018-04-28T02:26:43.625Z,21.70
2018-04-28T02:27:15.209Z,21.71
2018-04-28T02:27:46.804Z,21.71
2018-04-28T02:28:18.392Z,21.69
2018-04-28T02:28:49.994Z,21.67
2018-04-28T02:29:21.597Z,21.68
2018-04-28T02:29:53.182Z,21.68
2018-04-28T02:30:24.831Z,21.70
2018-04-28T02:30:56.401Z,21.70
2018-04-28T02:31:27.976Z,21.73
2018-04-28T02:31:59.558Z,21.76
2018-04-28T02:32:31.158Z,21.79
2018-04-28T02:33:02.809Z,21.80
2018-04-28T02:33:34.414Z,21.80
2018-04-28T02:34:06.013Z,21.80
2018-04-28T02:34:37.627Z,21.80
2018-04-28T02:35:09.234Z,21.80
2018-04-28T02:35:40.833Z,21.81
2018-04-28T02:36:12.438Z,21.80
2018-04-28T02:36:44.031Z,21.80
2018-04-28T02:37:15.609Z,21.80
2018-04-28T02:37:47.205Z,21.81
2018-04-28T02:38:18.845Z,21.82
2018-04-28T02:38:50.449Z,21.80
2018-04-28T02:39:22.045Z,21.78
2018-04-28T02:39:53.632Z,21.79
2018-04-28T02:40:25.235Z,21.77
2018-04-28T02:40:56.850Z,21.79
2018-04-28T02:41:28.514Z,21.80
2018-04-28T02:42:00.099Z,21.79
2018-04-28T02:42:31.705Z,21.78
2018-04-28T02:43:03.310Z,21.78
2018-04-28T02:43:34.894Z,21.78
2018-04-28T02:44:06.504Z,21.80
2018-04-28T02:44:38.095Z,21.79
2018-04-28T02:45:09.678Z,21.80
2018-04-28T02:45:41.294Z,21.79
2018-04-28T02:46:12.874Z,21.80
2018-04-28T02:46:44.453Z,21.78
2018-04-28T02:47:16.051Z,21.76
2018-04-28T02:47:47.633Z,21.75
2018-04-28T02:48:19.220Z,21.75
2018-04-28T02:48:50.793Z,21.74
2018-04-28T02:49:22.375Z,21.74
2018-04-28T02:49:53.941Z,21.75
2018-04-28T02:50:25.572Z,21.76
2018-04-28T02:50:57.163Z,21.76
2018-04-28T02:51:28.770Z,21.76
2018-04-28T02:52:00.350Z,21.76
2018-04-28T02:52:31.931Z,21.75
2018-04-28T02:53:03.525Z,21.76
2018-04-28T02:53:35.110Z,21.74
2018-04-28T02:54:06.687Z,21.72
2018-04-28T02:54:38.267Z,21.73
2018-04-28T02:55:09.886Z,21.74
2018-04-28T02:55:41.465Z,21.74
2018-04-28T02:56:13.074Z,21.74
2018-04-28T02:56:44.673Z,21.74
2018-04-28T02:57:16.278Z,21.74
2018-04-28T02:57:47.886Z,21.75
2018-04-28T02:58:19.489Z,21.74
2018-04-28T02:58:51.074Z,21.71
2018-04-28T02:59:22.641Z,21.74
2018-04-28T02:59:54.242Z,21.73
2018-04-28T03:00:25.831Z,21.70
2018-04-28T03:00:57.493Z,21.72
2018-04-28T03:01:29.078Z,21.72
2018-04-28T03:02:00.645Z,21.70
2018-04-28T03:02:32.235Z,21.71
2018-04-28T03:03:03.818Z,21.70
2018-04-28T03:03:35.431Z,21.69
2018-04-28T03:04:07.113Z,21.68
2018-04-28T03:04:38.726Z,21.68
2018-04-28T03:05:10.334Z,21.69
2018-04-28T03:05:41.934Z,21.70
2018-04-28T03:06:13.549Z,21.71
2018-04-28T03:06:45.116Z,21.70
2018-04-28T03:07:16.695Z,21.67
2018-04-28T03:07:48.302Z,21.68
2018-04-28T03:08:19.901Z,21.69
2018-04-28T03:08:51.477Z,21.69
2018-04-28T03:09:23.063Z,21.68
2018-04-28T03:09:54.665Z,21.67
2018-04-28T03:10:26.274Z,21.66
2018-04-28T03:10:57.928Z,21.67
2018-04-28T03:11:29.538Z,21.67
2018-04-28T03:12:01.108Z,21.66
2018-04-28T03:12:32.698Z,21.65
2018-04-28T03:13:04.302Z,21.64
2018-04-28T03:13:35.915Z,21.65
2018-04-28T03:14:07.499Z,21.64
2018-04-28T03:14:39.078Z,21.64
2018-04-28T03:15:10.687Z,21.66
2018-04-28T03:15:42.274Z,21.66
2018-04-28T03:16:13.913Z,21.66
2018-04-28T03:16:45.507Z,21.65
2018-04-28T03:17:17.162Z,21.62
2018-04-28T03:17:48.754Z,21.63
2018-04-28T03:18:20.358Z,21.61
2018-04-28T03:18:51.975Z,21.61
2018-04-28T03:19:23.558Z,21.61
2018-04-28T03:19:55.166Z,21.60
2018-04-28T03:20:26.773Z,21.56
2018-04-28T03:20:58.358Z,21.62
2018-04-28T03:21:29.977Z,21.61
2018-04-28T03:22:01.561Z,21.59
2018-04-28T03:22:33.170Z,21.59
2018-04-28T03:23:04.795Z,21.58
2018-04-28T03:23:36.370Z,21.57
2018-04-28T03:24:08.014Z,21.58
2018-04-28T03:24:39.598Z,21.58
2018-04-28T03:25:11.183Z,21.58
2018-04-28T03:25:42.749Z,21.61
2018-04-28T03:26:14.347Z,21.61
2018-04-28T03:26:45.931Z,21.63
2018-04-28T03:27:17.562Z,21.65
2018-04-28T03:27:49.139Z,21.65
2018-04-28T03:28:20.745Z,21.66
2018-04-28T03:28:52.353Z,20.31
2018-04-28T03:29:23.958Z,21.64
2018-04-28T03:29:55.567Z,21.65
2018-04-28T03:30:27.144Z,21.64
2018-04-28T03:30:58.731Z,21.67
2018-04-28T03:31:30.339Z,21.67
2018-04-28T03:32:01.936Z,21.64
2018-04-28T03:32:33.562Z,21.65
2018-04-28T03:33:05.129Z,21.66
2018-04-28T03:33:36.729Z,21.64
2018-04-28T03:34:08.333Z,21.64
2018-04-28T03:34:39.937Z,21.64
2018-04-28T03:35:11.543Z,21.63
2018-04-28T03:35:43.130Z,21.63
2018-04-28T03:36:14.706Z,21.62
2018-04-28T03:36:46.350Z,21.59
2018-04-28T03:37:17.954Z,21.60
2018-04-28T03:37:49.534Z,21.62
2018-04-28T03:38:21.124Z,21.62
2018-04-28T03:38:52.749Z,21.53
2018-04-28T03:39:24.331Z,21.58
2018-04-28T03:39:55.933Z,21.62
2018-04-28T03:40:27.541Z,21.63
2018-04-28T03:40:59.121Z,21.63
2018-04-28T03:41:30.712Z,21.63
2018-04-28T03:42:02.294Z,21.64
2018-04-28T03:42:33.889Z,21.65
2018-04-28T03:43:05.474Z,21.65
2018-04-28T03:43:37.050Z,21.66
2018-04-28T03:44:08.689Z,21.68
2018-04-28T03:44:40.283Z,21.69
2018-04-28T03:45:11.855Z,21.69
2018-04-28T03:45:43.454Z,21.69
2018-04-28T03:46:15.066Z,21.70
2018-04-28T03:46:46.669Z,21.68
2018-04-28T03:47:18.250Z,21.70
2018-04-28T03:47:49.844Z,21.69
2018-04-28T03:48:21.430Z,21.70
2018-04-28T03:48:53.074Z,21.71
2018-04-28T03:49:24.682Z,21.71
2018-04-28T03:49:56.285Z,21.70
2018-04-28T03:50:27.866Z,21.71
2018-04-28T03:50:59.486Z,21.70
2018-04-28T03:51:31.130Z,21.69
2018-04-28T03:52:02.726Z,21.69
2018-04-28T03:52:34.386Z,21.69
2018-04-28T03:53:05.966Z,21.71
2018-04-28T03:53:37.543Z,21.71
2018-04-28T03:54:09.146Z,21.72
2018-04-28T03:54:40.716Z,21.71
2018-04-28T03:55:12.308Z,21.71
2018-04-28T03:55:43.917Z,21.73
2018-04-28T03:56:15.559Z,21.72
2018-04-28T03:56:47.170Z,21.74
2018-04-28T03:57:18.763Z,21.75
2018-04-28T03:57:50.360Z,21.76
2018-04-28T03:58:21.957Z,21.74
2018-04-28T03:58:53.528Z,21.72
2018-04-28T03:59:25.106Z,21.73
2018-04-28T03:59:56.758Z,21.73
2018-04-28T04:00:28.370Z,21.74
2018-04-28T04:00:59.958Z,21.73
2018-04-28T04:01:31.561Z,21.74
2018-04-28T04:02:03.156Z,21.73
2018-04-28T04:02:34.752Z,21.75
2018-04-28T04:03:06.403Z,21.74
2018-04-28T04:03:38.034Z,21.74
2018-04-28T04:04:09.663Z,21.76
2018-04-28T04:04:41.256Z,21.79
2018-04-28T04:05:12.838Z,21.81
2018-04-28T04:05:44.406Z,21.83
2018-04-28T04:06:16.018Z,21.83
2018-04-28T04:06:47.612Z,21.84
2018-04-28T04:07:19.200Z,21.80
2018-04-28T04:07:50.792Z,21.79
2018-04-28T04:08:22.426Z,21.78
2018-04-28T04:08:54.054Z,21.78
2018-04-28T04:09:25.661Z,21.77
2018-04-28T04:09:57.257Z,21.77
2018-04-28T04:10:28.828Z,21.76
2018-04-28T04:11:00.424Z,21.73
2018-04-28T04:11:32.078Z,21.74
2018-04-28T04:12:03.690Z,21.75
2018-04-28T04:12:35.265Z,21.75
2018-04-28T04:13:06.850Z,21.74
2018-04-28T04:13:38.449Z,21.73
2018-04-28T04:14:10.061Z,21.73
2018-04-28T04:14:41.661Z,21.75
2018-04-28T04:15:13.237Z,21.75
2018-04-28T04:15:44.846Z,21.76
2018-04-28T04:16:16.435Z,21.76
2018-04-28T04:16:48.048Z,21.76
2018-04-28T04:17:19.659Z,21.75
2018-04-28T04:17:51.282Z,21.76
2018-04-28T04:18:22.898Z,21.76
2018-04-28T04:18:54.488Z,21.77
2018-04-28T04:19:26.096Z,21.79
2018-04-28T04:19:57.668Z,21.77
2018-04-28T04:20:29.298Z,21.78
2018-04-28T04:21:00.902Z,21.80
2018-04-28T04:21:32.490Z,21.81
2018-04-28T04:22:04.074Z,21.79
2018-04-28T04:22:35.658Z,21.79
2018-04-28T04:23:07.262Z,21.79
2018-04-28T04:23:38.856Z,21.80
2018-04-28T04:24:10.456Z,21.79
2018-04-28T04:24:42.042Z,21.78
2018-04-28T04:25:13.609Z,21.78
2018-04-28T04:25:45.217Z,21.77
2018-04-28T04:26:16.808Z,21.77
2018-04-28T04:26:48.400Z,21.75
2018-04-28T04:27:19.986Z,21.74
2018-04-28T04:27:51.570Z,21.77
2018-04-28T04:28:23.181Z,21.76
2018-04-28T04:28:54.768Z,21.74
2018-04-28T04:29:26.353Z,21.76
2018-04-28T04:29:57.937Z,21.75
2018-04-28T04:30:29.553Z,21.75
2018-04-28T04:31:01.148Z,21.74
2018-04-28T04:31:32.759Z,21.73
2018-04-28T04:32:04.355Z,21.78
2018-04-28T04:32:35.932Z,21.80
2018-04-28T04:33:07.534Z,21.80
2018-04-28T04:33:39.186Z,21.80
2018-04-28T04:34:10.774Z,21.81
2018-04-28T04:34:42.364Z,21.80
2018-04-28T04:35:13.962Z,21.79
2018-04-28T04:35:45.542Z,21.79
2018-04-28T04:36:17.122Z,21.78
2018-04-28T04:36:48.688Z,21.78
2018-04-28T04:37:20.294Z,21.79
2018-04-28T04:37:51.873Z,21.79
2018-04-28T04:38:23.460Z,21.78
2018-04-28T04:38:55.085Z,21.78
2018-04-28T04:39:26.685Z,21.80
2018-04-28T04:39:58.292Z,21.79
2018-04-28T04:40:29.898Z,21.78
2018-04-28T04:41:01.542Z,21.78
2018-04-28T04:41:33.145Z,21.78
2018-04-28T04:42:04.744Z,21.78
2018-04-28T04:42:36.313Z,21.75
2018-04-28T04:43:07.918Z,21.73
2018-04-28T04:43:39.511Z,21.72
2018-04-28T04:44:11.112Z,21.71
2018-04-28T04:44:42.690Z,21.71
2018-04-28T04:45:14.294Z,21.68
2018-04-28T04:45:45.917Z,21.68
2018-04-28T04:46:17.487Z,21.66
2018-04-28T04:46:49.070Z,21.67
2018-04-28T04:47:20.690Z,21.67
2018-04-28T04:47:52.267Z,21.68
2018-04-28T04:48:23.850Z,21.68
2018-04-28T04:48:55.426Z,21.67
2018-04-28T04:49:27.029Z,21.66
2018-04-28T04:49:59.647Z,21.67
2018-04-28T04:50:31.362Z,21.67
2018-04-28T04:51:02.962Z,21.67
2018-04-28T04:51:34.613Z,21.67
2018-04-28T04:52:06.204Z,21.68
2018-04-28T04:52:37.786Z,21.67
2018-04-28T04:53:09.389Z,21.68
2018-04-28T04:53:40.998Z,21.64
2018-04-28T04:54:12.609Z,21.68
2018-04-28T04:54:44.194Z,21.68
2018-04-28T04:55:15.777Z,21.66
2018-04-28T04:55:47.377Z,21.64
2018-04-28T04:56:19.087Z,21.65
2018-04-28T04:56:50.657Z,21.67
2018-04-28T04:57:22.285Z,21.70
2018-04-28T04:57:53.893Z,21.68
2018-04-28T04:58:25.497Z,21.68
2018-04-28T04:58:57.102Z,21.71
2018-04-28T04:59:28.714Z,21.72
2018-04-28T05:00:00.326Z,21.68
2018-04-28T05:00:31.895Z,21.70
2018-04-28T05:01:03.504Z,21.71
2018-04-28T05:01:35.085Z,21.69
2018-04-28T05:02:06.670Z,21.70
2018-04-28T05:02:38.334Z,21.67
2018-04-28T05:03:09.922Z,21.69
2018-04-28T05:03:41.506Z,21.70
2018-04-28T05:04:13.199Z,21.70
2018-04-28T05:04:44.798Z,21.71
2018-04-28T05:05:16.369Z,21.72
2018-04-28T05:05:47.972Z,21.72
2018-04-28T05:06:19.567Z,21.74
2018-04-28T05:06:51.154Z,21.76
2018-04-28T05:07:22.744Z,21.74
2018-04-28T05:07:54.368Z,21.76
2018-04-28T05:08:25.951Z,21.74
2018-04-28T05:08:57.536Z,21.72
2018-04-28T05:09:29.108Z,21.73
2018-04-28T05:10:00.699Z,21.71
2018-04-28T05:10:32.268Z,21.71
2018-04-28T05:11:03.850Z,21.72
2018-04-28T05:11:35.416Z,21.71
2018-04-28T05:12:07.013Z,21.73
2018-04-28T05:12:38.613Z,21.71
2018-04-28T05:13:10.231Z,21.73
2018-04-28T05:13:41.825Z,21.75
2018-04-28T05:14:13.410Z,21.75
2018-04-28T05:14:45.009Z,21.74
2018-04-28T05:15:16.590Z,21.71
2018-04-28T05:15:48.163Z,21.71
2018-04-28T05:16:19.756Z,21.69
2018-04-28T05:16:51.328Z,21.67
2018-04-28T05:17:22.896Z,21.67
2018-04-28T05:17:54.488Z,21.65
2018-04-28T05:18:26.114Z,21.67
2018-04-28T05:18:57.763Z,21.68
2018-04-28T05:19:29.332Z,21.69
2018-04-28T05:20:00.915Z,21.69
2018-04-28T05:20:32.493Z,21.72
2018-04-28T05:21:04.082Z,21.70
2018-04-28T05:21:35.656Z,21.74
2018-04-28T05:22:07.235Z,21.74
2018-04-28T05:22:38.828Z,21.76
2018-04-28T05:23:10.429Z,21.74
2018-04-28T05:23:42.078Z,21.75
2018-04-28T05:24:13.686Z,21.72
2018-04-28T05:24:45.294Z,21.76
2018-04-28T05:25:16.895Z,21.76
2018-04-28T05:25:48.474Z,21.76
2018-04-28T05:26:20.062Z,21.75
2018-04-28T05:26:51.637Z,21.74
2018-04-28T05:27:23.219Z,21.76
2018-04-28T05:27:54.787Z,21.76
2018-04-28T05:28:26.405Z,21.78
2018-04-28T05:28:58.010Z,21.84
2018-04-28T05:29:29.625Z,21.90
2018-04-28T05:30:01.230Z,21.91
2018-04-28T05:30:32.814Z,21.88
2018-04-28T05:31:04.427Z,21.87
2018-04-28T05:31:36.058Z,21.83
2018-04-28T05:32:07.662Z,21.81
2018-04-28T05:32:39.250Z,21.79
2018-04-28T05:33:10.890Z,21.74
2018-04-28T05:33:42.505Z,21.71
2018-04-28T05:34:14.110Z,21.73
2018-04-28T05:34:45.738Z,21.71
2018-04-28T05:35:17.345Z,21.67
2018-04-28T05:35:48.950Z,21.64
2018-04-28T05:36:20.520Z,21.62
2018-04-28T05:36:52.124Z,21.61
2018-04-28T05:37:23.743Z,21.60
2018-04-28T05:37:55.354Z,21.56
2018-04-28T05:38:27.003Z,21.57
2018-04-28T05:38:58.619Z,21.54
2018-04-28T05:39:30.214Z,21.52
2018-04-28T05:40:01.811Z,21.52
2018-04-28T05:40:33.388Z,21.50
2018-04-28T05:41:04.993Z,21.48
2018-04-28T05:41:36.602Z,21.48
2018-04-28T05:42:08.210Z,21.48
2018-04-28T05:42:39.838Z,21.47
2018-04-28T05:43:11.442Z,21.46
2018-04-28T05:43:43.021Z,21.45
2018-04-28T05:44:14.612Z,21.46
2018-04-28T05:44:46.234Z,21.46
2018-04-28T05:45:17.862Z,21.46
2018-04-28T05:45:49.466Z,21.45
2018-04-28T05:46:21.036Z,21.46
2018-04-28T05:46:52.663Z,21.45
2018-04-28T05:47:24.236Z,21.44
2018-04-28T05:47:55.818Z,21.43
2018-04-28T05:48:27.414Z,21.43
2018-04-28T05:48:59.225Z,21.42
2018-04-28T05:49:30.820Z,21.40
2018-04-28T05:50:02.445Z,21.41
2018-04-28T05:50:35.428Z,21.41
2018-04-28T05:51:07.052Z,21.43
2018-04-28T05:51:38.640Z,21.41
2018-04-28T05:52:10.246Z,21.42
2018-04-28T05:52:41.830Z,21.41
2018-04-28T05:53:13.474Z,21.39
2018-04-28T05:53:45.082Z,21.39
2018-04-28T05:54:16.681Z,21.39
2018-04-28T05:54:48.287Z,21.39
2018-04-28T05:55:19.905Z,21.42
2018-04-28T05:55:51.519Z,21.38
2018-04-28T05:56:23.132Z,21.40
2018-04-28T05:56:54.733Z,21.41
2018-04-28T05:57:26.356Z,21.40
2018-04-28T05:57:57.941Z,21.40
2018-04-28T05:58:29.550Z,21.39
2018-04-28T05:59:01.157Z,21.38
2018-04-28T05:59:32.742Z,21.38
2018-04-28T06:00:04.321Z,21.37
2018-04-28T06:00:42.245Z,21.38
2018-04-28T06:01:13.866Z,21.38
2018-04-28T06:01:45.450Z,21.39
2018-04-28T06:02:17.030Z,21.39
2018-04-28T06:02:48.669Z,21.38
2018-04-28T06:03:20.320Z,21.38
2018-04-28T06:03:52.909Z,21.38
2018-04-28T06:04:24.488Z,21.36
2018-04-28T06:04:56.093Z,21.37
2018-04-28T06:05:27.697Z,21.36
2018-04-28T06:05:59.347Z,21.36
2018-04-28T06:06:30.933Z,21.37
2018-04-28T06:07:02.512Z,21.35
2018-04-28T06:07:34.134Z,21.35
2018-04-28T06:08:05.709Z,21.35
2018-04-28T06:08:37.322Z,21.33
2018-04-28T06:09:08.920Z,21.32
2018-04-28T06:09:40.502Z,21.33
2018-04-28T06:10:12.082Z,21.34
2018-04-28T06:10:43.682Z,21.35
2018-04-28T06:11:15.262Z,21.36
2018-04-28T06:11:46.857Z,21.36
2018-04-28T06:12:18.465Z,21.38
2018-04-28T06:12:50.089Z,21.38
2018-04-28T06:13:21.660Z,21.38
2018-04-28T06:13:53.269Z,21.38
2018-04-28T06:14:24.840Z,21.37
2018-04-28T06:14:56.490Z,21.36
2018-04-28T06:15:28.082Z,21.37
2018-04-28T06:15:59.681Z,21.37
2018-04-28T06:16:31.285Z,21.37
2018-04-28T06:17:02.880Z,21.36
2018-04-28T06:17:34.467Z,21.36
2018-04-28T06:18:06.050Z,21.35
2018-04-28T06:18:37.670Z,21.36
2018-04-28T06:19:09.277Z,21.36
2018-04-28T06:19:40.866Z,21.36
2018-04-28T06:20:12.501Z,21.36
2018-04-28T06:20:44.105Z,21.36
2018-04-28T06:21:15.691Z,21.37
2018-04-28T06:21:47.278Z,21.37
2018-04-28T06:22:18.866Z,21.36
2018-04-28T06:22:50.466Z,21.32
2018-04-28T06:23:22.073Z,21.35
2018-04-28T06:23:53.707Z,21.35
2018-04-28T06:24:25.298Z,21.33
2018-04-28T06:24:56.892Z,21.34
2018-04-28T06:25:28.481Z,21.40
2018-04-28T06:26:00.081Z,21.42
2018-04-28T06:26:31.738Z,21.53
2018-04-28T06:27:03.355Z,21.51
2018-04-28T06:27:34.938Z,21.50
2018-04-28T06:28:06.504Z,21.48
2018-04-28T06:28:38.136Z,21.47
2018-04-28T06:29:09.730Z,21.44
2018-04-28T06:29:41.321Z,21.40
2018-04-28T06:30:12.902Z,21.36
2018-04-28T06:30:44.482Z,21.33
2018-04-28T06:31:16.086Z,21.32
2018-04-28T06:31:47.679Z,21.30
2018-04-28T06:32:19.286Z,21.27
2018-04-28T06:32:50.873Z,21.26
2018-04-28T06:33:22.494Z,21.24
2018-04-28T06:33:54.074Z,21.23
2018-04-28T06:34:25.640Z,21.21
2018-04-28T06:34:57.242Z,21.21
2018-04-28T06:35:28.845Z,21.21
2018-04-28T06:36:00.464Z,21.18
2018-04-28T06:36:32.089Z,21.19
2018-04-28T06:37:03.693Z,21.19
2018-04-28T06:37:35.316Z,21.18
2018-04-28T06:38:06.898Z,21.18
2018-04-28T06:38:38.497Z,21.18
2018-04-28T06:39:10.092Z,21.17
2018-04-28T06:39:41.677Z,21.16
2018-04-28T06:40:13.244Z,21.16
2018-04-28T06:40:44.826Z,21.15
2018-04-28T06:41:16.488Z,21.13
2018-04-28T06:41:47.997Z,21.12
2018-04-28T06:42:19.606Z,21.13
2018-04-28T06:42:51.215Z,21.10
2018-04-28T06:43:22.861Z,21.10
2018-04-28T06:43:54.467Z,21.09
2018-04-28T06:44:26.068Z,21.08
2018-04-28T06:44:57.664Z,21.13
2018-04-28T06:45:29.251Z,21.12
2018-04-28T06:46:00.856Z,21.12
2018-04-28T06:46:32.453Z,21.12
2018-04-28T06:47:04.067Z,21.10